Ana Sayfa
METAR-TAF:

METAR-TAF

Havaalanları :

Hartum, Sudan

Enlem: 15-36N, Boylam: 032-33E, yükseklik: 382 m

Güncel hava durumu gözlemi

Rapor saat 08:30 UTC de 28 dakika önce yapıldı.
Rüzgar güneydan 9 kt
Sıcaklık 36°C
Nem 37%
Basınç 1011 hPa
Görüş mesafesi 10 km veya daha fazla
1500 m altında bulut yok ve kümülonimbus yok

METAR: HSSS 230830Z 17009KT CAVOK 36/19 Q1011 NOSIG

Saat: 11:58 (08:58 UTC)

Tahmin

Rapor saat 05:00 UTC de 3 saat ve 58 dakika önce yapıldı.
Ayın 23'si saat 06 UTC'den ayın 24'si saat 12 UTC'ye kadar geçerli Tahmin
Rüzgar güney/güneybatıdan 8 kt ve 20 kt'a kadar ani rüzgarlar
Görüş mesafesi 10 km veya daha fazla
1500 m altında bulut yok ve kümülonimbus yok
Geçici
ayın 23'si saat 16 UTC'den ayın 23'si saat 20 UTC'ye kadar
Görüş mesafesi: 6000 m

TAF: HSSS 230500Z 2306/2412 20008G20KT CAVOK TEMPO 2316/2320 6000 NSC

4.000'den fazla havaalanı için hava durumu gözlemleri ve tahminleri (METAR ve TAF raporları).

Kullanılabilir istasyonlar harita üzerinde sarı ve kırmızı noktalarla gösterilir.

İstasyonun adını görmek için fareyi noktanın üzerinde gezdirin.

Sonrasında hava gözlem ve tahminlerini görmek için tıklayın.

Haritayı değiştirmek için: yaklaştırmak için siyah artı işaretli yeşil düğmeye ve uzaklaştırmak için de eksi işaretli düğmeye hızla tıklayın; bitişik haritalar için yeşil okları kullanın.


METAR-TAF: